Time;durP1;ratioP1;P1;durP2;ratioP2;P2;SDS_P1;SDS_P2;PMS_P1;PMS_P2;Temp;Humidity;BMP_temperature;BMP_pressure;BME280_temperature;BME280_humidity;BME280_pressure;Samples;Min_cycle;Max_cycle;Signal;HPM_P1;HPM_P2
2021/11/11 00:01:50;;;;;;;53.13;33.08;;;;;;;1.31;97.02;101853.63;4988473;23;20389;-48
2021/11/11 00:04:20;;;;;;;51.85;31.92;;;;;;;1.20;97.08;101853.25;4974678;28;20426;-47
2021/11/11 00:06:48;;;;;;;57.55;32.03;;;;;;;1.24;97.06;101865.09;4982748;28;20116;-48
2021/11/11 00:09:15;;;;;;;49.70;32.38;;;;;;;1.13;97.21;101866.47;4993218;28;20053;-46
2021/11/11 00:11:43;;;;;;;51.53;31.50;;;;;;;1.09;96.89;101850.28;4994115;28;20058;-48
2021/11/11 00:14:10;;;;;;;45.25;30.77;;;;;;;1.04;97.09;101848.81;4993593;28;20047;-49
2021/11/11 00:16:37;;;;;;;49.17;30.20;;;;;;;1.08;96.88;101840.03;4993181;28;20058;-47
2021/11/11 00:19:04;;;;;;;57.70;32.05;;;;;;;1.04;97.18;101841.06;4994015;28;20081;-49
2021/11/11 00:21:32;;;;;;;52.90;31.15;;;;;;;1.00;96.89;101836.03;4997963;28;20081;-45
2021/11/11 00:23:59;;;;;;;59.85;33.80;;;;;;;0.95;96.78;101827.66;4995989;28;20109;-44
2021/11/11 00:26:26;;;;;;;57.15;32.95;;;;;;;0.88;97.32;101835.75;4993735;28;20085;-43
2021/11/11 00:28:52;;;;;;;54.03;31.23;;;;;;;0.98;97.42;101842.16;4993495;28;20096;-48
2021/11/11 00:31:19;;;;;;;47.90;30.55;;;;;;;0.90;96.66;101836.53;4993681;28;20088;-50
2021/11/11 00:33:46;;;;;;;48.38;31.63;;;;;;;0.85;96.77;101828.97;4993516;28;20050;-44
2021/11/11 00:36:13;;;;;;;55.75;29.60;;;;;;;0.78;96.89;101830.13;4993637;28;20050;-47
2021/11/11 00:38:41;;;;;;;46.90;30.35;;;;;;;0.78;97.24;101830.13;4993235;28;20053;-46
2021/11/11 00:41:10;;;;;;;50.80;31.13;;;;;;;0.81;96.55;101824.03;4993304;28;20066;-45
2021/11/11 00:43:37;;;;;;;49.00;29.70;;;;;;;0.82;96.60;101820.53;4993511;28;20058;-47
2021/11/11 00:46:03;;;;;;;52.67;30.25;;;;;;;0.71;96.84;101828.72;4993133;28;20058;-52
2021/11/11 00:48:30;;;;;;;49.63;29.83;;;;;;;0.65;96.80;101821.25;4993293;28;20050;-49
2021/11/11 00:50:58;;;;;;;48.28;31.08;;;;;;;0.62;96.83;101824.78;4993332;28;20132;-44
2021/11/11 00:53:24;;;;;;;47.58;29.77;;;;;;;0.66;96.38;101815.19;4993261;28;20058;-48
2021/11/11 00:55:53;;;;;;;49.08;29.98;;;;;;;0.69;96.45;101809.06;4993206;28;20417;-46
2021/11/11 00:58:20;;;;;;;53.75;30.40;;;;;;;0.57;96.39;101816.41;4992818;28;20104;-47
2021/11/11 01:00:47;;;;;;;43.20;28.73;;;;;;;0.50;96.69;101814.13;4993037;28;20116;-50
2021/11/11 01:03:15;;;;;;;45.92;28.17;;;;;;;0.51;96.36;101810.66;4992841;28;20050;-44
2021/11/11 01:05:41;;;;;;;52.50;29.55;;;;;;;0.52;96.42;101799.44;4992711;28;20500;-49
2021/11/11 01:08:08;;;;;;;45.05;29.67;;;;;;;0.60;96.10;101807.72;4992470;28;20124;-44
2021/11/11 01:10:36;;;;;;;51.05;31.00;;;;;;;0.52;96.40;101808.00;4992726;28;20093;-49
2021/11/11 01:13:05;;;;;;;50.95;31.15;;;;;;;0.46;96.77;101799.75;4992535;28;20101;-47
2021/11/11 01:15:33;;;;;;;49.15;28.95;;;;;;;0.43;96.84;101813.56;4992632;28;20050;-45
2021/11/11 01:18:03;;;;;;;56.38;30.50;;;;;;;0.45;96.38;101818.66;4992668;28;20050;-46
2021/11/11 01:20:31;;;;;;;47.33;29.88;;;;;;;0.48;96.92;101815.94;4992476;28;20050;-44
2021/11/11 01:22:58;;;;;;;53.15;30.98;;;;;;;0.50;96.69;101808.97;4992753;28;20129;-50
2021/11/11 01:25:28;;;;;;;50.50;30.27;;;;;;;0.58;97.25;101812.91;4992687;28;20051;-46
2021/11/11 01:27:55;;;;;;;56.75;32.38;;;;;;;0.65;97.53;101806.63;4992560;28;20492;-46
2021/11/11 01:30:23;;;;;;;50.88;29.63;;;;;;;0.61;96.63;101796.50;4992351;28;20544;-50
2021/11/11 01:32:50;;;;;;;50.45;29.75;;;;;;;0.53;96.87;101790.81;4992500;28;20197;-51
2021/11/11 01:35:17;;;;;;;48.08;30.15;;;;;;;0.57;97.08;101794.94;4992648;28;20505;-46
2021/11/11 01:37:45;;;;;;;56.15;31.27;;;;;;;0.46;96.91;101803.16;4992650;28;20046;-48
2021/11/11 01:40:13;;;;;;;54.53;32.10;;;;;;;0.48;96.87;101790.19;4992103;28;20138;-47
2021/11/11 01:42:46;;;;;;;70.95;34.58;;;;;;;0.43;97.76;101785.25;4992407;28;20164;-45
2021/11/11 01:45:13;;;;;;;;;;;;;;;0.37;97.22;101782.09;4992828;28;20042;-49
2021/11/11 01:47:42;;;;;;;60.90;32.95;;;;;;;0.24;97.83;101786.88;4992423;28;19969;-49
2021/11/11 01:50:10;;;;;;;67.68;34.22;;;;;;;0.21;97.61;101787.84;4992581;28;20505;-47
2021/11/11 01:52:37;;;;;;;62.97;34.80;;;;;;;0.25;97.68;101784.25;4992509;28;20596;-47
2021/11/11 01:55:06;;;;;;;70.38;35.78;;;;;;;0.32;98.13;101785.69;4992006;28;20112;-47
2021/11/11 01:57:33;;;;;;;65.90;35.83;;;;;;;0.42;98.24;101782.72;4992222;28;20066;-49
2021/11/11 02:00:00;;;;;;;60.13;34.90;;;;;;;0.44;98.34;101791.22;4992127;28;20089;-48
2021/11/11 02:02:29;;;;;;;64.82;34.92;;;;;;;0.40;98.12;101772.50;4992017;28;20070;-49
2021/11/11 02:04:57;;;;;;;76.65;36.72;;;;;;;0.41;98.68;101781.06;4992478;28;20082;-49
2021/11/11 02:07:24;;;;;;;99.43;38.30;;;;;;;0.41;98.11;101781.06;4994462;28;20112;-52
2021/11/11 02:09:51;;;;;;;102.05;35.83;;;;;;;0.41;98.28;101781.91;4992080;28;20093;-50
2021/11/11 02:12:19;;;;;;;102.13;35.65;;;;;;;0.52;98.19;101787.41;4992055;28;20109;-47
2021/11/11 02:14:46;;;;;;;188.55;40.15;;;;;;;0.54;98.23;101782.19;4992245;28;20569;-49
2021/11/11 02:17:13;;;;;;;110.22;36.33;;;;;;;0.45;98.63;101780.88;4992325;28;20109;-53
2021/11/11 02:19:44;;;;;;;130.00;37.53;;;;;;;0.40;98.94;101781.97;4991620;28;20053;-45
2021/11/11 02:22:11;;;;;;;92.35;36.60;;;;;;;0.39;98.15;101780.28;4991908;28;20136;-49
2021/11/11 02:24:38;;;;;;;91.35;37.17;;;;;;;0.31;98.21;101788.31;4992483;28;20149;-47
2021/11/11 02:27:04;;;;;;;88.38;35.53;;;;;;;0.35;98.23;101781.31;4992498;28;20468;-49
2021/11/11 02:29:31;;;;;;;77.00;35.70;;;;;;;0.33;98.38;101787.34;4994337;28;20085;-47
2021/11/11 02:31:59;;;;;;;118.53;38.00;;;;;;;0.19;98.76;101791.38;4993825;28;20504;-52
2021/11/11 02:34:26;;;;;;;79.63;35.60;;;;;;;0.26;98.41;101793.66;4993651;28;20089;-47
2021/11/11 02:36:59;;;;;;;77.13;35.55;;;;;;;0.27;98.79;101781.59;4994025;28;20054;-50
2021/11/11 02:39:31;;;;;;;107.57;38.13;;;;;;;0.21;98.14;101777.53;4995357;28;20063;-45
2021/11/11 02:41:58;;;;;;;90.05;37.47;;;;;;;0.25;98.41;101768.81;4997216;28;20126;-46
2021/11/11 02:44:26;;;;;;;93.63;35.63;;;;;;;0.20;98.65;101777.59;4997218;28;20081;-47
2021/11/11 02:46:52;;;;;;;119.18;36.80;;;;;;;0.07;97.83;101773.84;4994164;28;20564;-47
2021/11/11 02:49:19;;;;;;;99.03;36.33;;;;;;;0.00;98.36;101778.41;4993521;28;20108;-46
2021/11/11 02:51:46;;;;;;;129.60;38.72;;;;;;;0.02;98.61;101771.44;4993068;28;20086;-44
2021/11/11 02:54:14;;;;;;;119.55;38.20;;;;;;;0.05;98.36;101773.91;4994350;28;20054;-50
2021/11/11 02:56:41;;;;;;;134.65;38.97;;;;;;;0.05;98.75;101776.47;4994864;28;20057;-48
2021/11/11 02:59:08;;;;;;;116.18;38.28;;;;;;;-0.06;98.66;101774.34;4994463;28;20077;-48
2021/11/11 03:01:35;;;;;;;103.43;37.88;;;;;;;0.00;98.28;101774.06;4994081;28;20812;-47
2021/11/11 03:04:01;;;;;;;79.95;35.90;;;;;;;-0.01;97.96;101790.44;4992975;28;20576;-48
2021/11/11 03:06:28;;;;;;;84.97;36.72;;;;;;;-0.05;98.35;101776.03;4992825;28;20496;-44
2021/11/11 03:08:55;;;;;;;90.43;38.92;;;;;;;-0.09;98.73;101789.06;4995589;28;20054;-46
2021/11/11 03:11:24;;;;;;;118.50;39.95;;;;;;;-0.11;98.02;101786.56;4996497;28;20101;-49
2021/11/11 03:13:50;;;;;;;109.43;39.88;;;;;;;0.01;98.28;101790.34;4994931;28;20561;-50
2021/11/11 03:16:17;;;;;;;108.38;38.60;;;;;;;0.05;98.54;101791.91;4994907;28;20058;-50
2021/11/11 03:18:44;;;;;;;102.47;39.22;;;;;;;0.10;98.13;101784.84;4994283;28;20101;-48
2021/11/11 03:21:10;;;;;;;105.07;39.17;;;;;;;0.10;98.82;101790.00;4994639;28;20128;-50
2021/11/11 03:23:37;;;;;;;94.60;41.45;;;;;;;0.17;98.70;101804.31;4994941;28;20467;-45
2021/11/11 03:26:04;;;;;;;66.47;37.08;;;;;;;0.12;98.48;101803.66;4994583;28;20125;-50
2021/11/11 03:28:32;;;;;;;88.50;39.35;;;;;;;0.07;98.21;101799.56;4994582;28;20074;-46
2021/11/11 03:30:59;;;;;;;131.40;40.95;;;;;;;0.14;98.28;101793.28;4994651;28;20046;-47
2021/11/11 03:33:26;;;;;;;91.18;41.03;;;;;;;0.16;98.24;101784.59;4994443;28;20493;-45
2021/11/11 03:35:53;;;;;;;83.75;39.28;;;;;;;0.14;98.04;101793.28;4994197;28;20512;-50
2021/11/11 03:38:20;;;;;;;82.15;40.00;;;;;;;0.08;98.08;101796.09;4994052;28;20046;-49
2021/11/11 03:40:47;;;;;;;79.65;40.97;;;;;;;0.06;98.69;101793.59;4994488;28;20413;-45
2021/11/11 03:43:15;;;;;;;86.70;38.42;;;;;;;0.13;97.96;101796.75;4994510;28;20066;-49
2021/11/11 03:45:43;;;;;;;123.78;40.78;;;;;;;-0.07;97.75;101802.72;4994442;28;20058;-44
2021/11/11 03:48:10;;;;;;;144.20;41.55;;;;;;;-0.27;97.88;101794.91;4995473;28;20465;-45
2021/11/11 03:50:37;;;;;;;127.03;40.17;;;;;;;-0.34;98.85;101790.00;4994539;28;20120;-53
2021/11/11 03:53:04;;;;;;;152.05;42.30;;;;;;;-0.32;98.41;101797.66;4994943;28;20050;-45
2021/11/11 03:55:31;;;;;;;167.90;44.42;;;;;;;-0.35;98.38;101790.88;4994768;28;20058;-49
2021/11/11 03:57:59;;;;;;;177.30;42.05;;;;;;;-0.37;98.27;101797.81;4994431;28;20057;-46
2021/11/11 04:00:26;;;;;;;205.85;43.58;;;;;;;-0.39;99.11;101801.34;4993709;28;20142;-43
2021/11/11 04:02:54;;;;;;;242.82;47.67;;;;;;;-0.45;98.80;101797.25;4994079;28;20112;-44
2021/11/11 04:05:22;;;;;;;170.93;42.38;;;;;;;-0.43;98.78;101792.91;4994035;28;20109;-45
2021/11/11 04:07:49;;;;;;;190.10;44.20;;;;;;;-0.48;99.08;101792.25;4993964;28;20124;-47
2021/11/11 04:10:16;;;;;;;204.38;42.92;;;;;;;-0.46;98.91;101795.59;4993892;28;20057;-45
2021/11/11 04:12:42;;;;;;;240.30;46.70;;;;;;;-0.46;98.55;101799.91;4993952;28;20074;-45
2021/11/11 04:15:11;;;;;;;190.68;43.13;;;;;;;-0.45;99.10;101797.25;4993914;28;20086;-46
2021/11/11 04:17:39;;;;;;;146.50;43.08;;;;;;;-0.42;98.75;101804.03;4994299;28;20069;-47
2021/11/11 04:20:09;;;;;;;215.80;46.25;;;;;;;-0.40;98.81;101800.50;4996837;28;20066;-54
2021/11/11 04:22:36;;;;;;;152.02;43.67;;;;;;;-0.36;99.03;101802.06;4996606;28;20405;-49
2021/11/11 04:25:04;;;;;;;206.07;45.13;;;;;;;-0.34;98.58;101805.44;4999171;28;20055;-48
2021/11/11 04:27:33;;;;;;;211.18;47.42;;;;;;;-0.28;99.20;101811.22;4996820;28;20122;-48
2021/11/11 04:30:13;;;;;;;173.98;43.85;;;;;;;-0.31;99.04;101803.63;4996656;28;20061;-47
2021/11/11 04:32:40;;;;;;;218.20;44.33;;;;;;;-0.35;99.29;101802.91;4995616;28;20412;-49
2021/11/11 04:35:10;;;;;;;264.40;45.25;;;;;;;-0.40;98.94;101790.22;4998184;28;20054;-50
2021/11/11 04:37:44;;;;;;;197.15;43.10;;;;;;;-0.35;98.48;101790.88;4995543;28;20570;-46
2021/11/11 04:40:40;;;;;;;211.35;40.58;;;;;;;-0.40;98.67;101795.38;4995797;28;20057;-47
2021/11/11 04:46:10;;;;;;;140.82;39.15;;;;;;;-0.43;99.11;101798.03;4993232;28;20050;-51
2021/11/11 05:05:30;;;;;;;167.20;38.45;;;;;;;-0.45;98.97;101812.69;5108780;28;20077;-51
2021/11/11 05:07:57;;;;;;;127.13;35.20;;;;;;;-0.54;98.80;101815.63;5108682;28;20502;-46
2021/11/11 05:10:26;;;;;;;127.10;35.08;;;;;;;-0.48;98.86;101817.97;5109124;28;20071;-47
2021/11/11 05:12:54;;;;;;;178.10;37.40;;;;;;;-0.52;98.37;101818.97;5110588;28;20120;-49
2021/11/11 05:15:22;;;;;;;124.30;33.47;;;;;;;-0.51;99.15;101823.22;5110615;28;20093;-49
2021/11/11 05:17:49;;;;;;;116.57;33.42;;;;;;;-0.48;98.87;101817.97;5110407;28;20101;-50
2021/11/11 05:20:17;;;;;;;140.80;35.40;;;;;;;-0.59;98.70;101820.09;5110623;28;20455;-49
2021/11/11 05:22:45;;;;;;;145.52;36.42;;;;;;;-0.62;98.71;101821.94;5111623;28;20055;-51
2021/11/11 05:25:14;;;;;;;101.82;31.95;;;;;;;-0.51;99.13;101833.50;5129504;27;20131;-52
2021/11/11 05:27:44;;;;;;;111.18;35.25;;;;;;;-0.50;98.89;101840.34;5127196;27;20582;-49
2021/11/11 05:30:14;;;;;;;108.72;33.47;;;;;;;-0.58;98.57;101838.94;5127343;27;20052;-49
2021/11/11 05:32:41;;;;;;;103.28;32.17;;;;;;;-0.55;98.70;101839.66;5127530;27;20104;-51
2021/11/11 05:35:10;;;;;;;136.20;36.55;;;;;;;-0.52;98.86;101851.56;5126500;27;20063;-50
2021/11/11 05:37:38;;;;;;;112.47;33.20;;;;;;;-0.49;98.97;101842.00;5128337;27;20492;-53
2021/11/11 05:40:07;;;;;;;106.40;32.78;;;;;;;-0.43;99.08;101856.34;5128331;27;20090;-48
2021/11/11 05:42:35;;;;;;;99.53;33.58;;;;;;;-0.39;98.78;101845.06;5129113;27;20086;-52
2021/11/11 05:45:05;;;;;;;87.85;30.55;;;;;;;-0.29;98.95;101848.13;5128734;27;20054;-53
2021/11/11 05:47:31;;;;;;;102.82;33.17;;;;;;;-0.38;98.12;101846.75;5129413;27;20138;-52
2021/11/11 05:49:59;;;;;;;115.88;33.75;;;;;;;-0.57;98.30;101851.72;5129175;27;20051;-53
2021/11/11 05:52:26;;;;;;;127.20;33.67;;;;;;;-0.72;97.98;101855.69;5129077;27;20390;-53
2021/11/11 05:54:53;;;;;;;99.68;31.65;;;;;;;-0.73;98.90;101863.44;5124041;27;20051;-52
2021/11/11 05:57:20;;;;;;;90.05;31.33;;;;;;;-0.86;98.25;101867.31;5126333;27;20089;-50
2021/11/11 05:59:47;;;;;;;97.18;31.80;;;;;;;-0.81;98.54;101860.28;5125497;27;20055;-52
2021/11/11 06:02:16;;;;;;;84.55;30.98;;;;;;;-0.78;98.49;101842.19;5160301;22;20089;-84
2021/11/11 06:04:44;;;;;;;65.50;29.73;;;;;;;-0.76;98.54;101841.25;5101568;28;20084;-82
2021/11/11 06:07:12;;;;;;;73.15;33.28;;;;;;;-0.75;97.95;101853.22;5097165;28;20044;-83
2021/11/11 06:09:39;;;;;;;84.20;33.80;;;;;;;-0.87;98.29;101860.50;5101079;22;20139;-49
2021/11/11 06:12:06;;;;;;;116.88;33.53;;;;;;;-0.82;98.40;101868.91;5083070;28;20051;-49
2021/11/11 06:14:33;;;;;;;98.70;33.83;;;;;;;-0.98;98.39;101868.59;5071672;28;20048;-47
2021/11/11 06:17:00;;;;;;;149.18;36.42;;;;;;;-0.96;98.11;101868.56;5093631;28;20040;-50
2021/11/11 06:19:30;;;;;;;165.10;39.10;;;;;;;-1.02;98.84;101862.72;5112022;28;20104;-49
2021/11/11 06:21:57;;;;;;;123.40;33.45;;;;;;;-0.94;98.53;101865.00;5113565;28;20047;-49
2021/11/11 06:24:23;;;;;;;187.77;37.03;;;;;;;-0.88;98.95;101866.53;5113006;28;20059;-47
2021/11/11 06:26:51;;;;;;;162.15;39.65;;;;;;;-0.93;98.77;101866.69;5113013;28;20083;-49
2021/11/11 06:29:18;;;;;;;166.95;38.00;;;;;;;-0.95;99.01;101867.66;5113012;28;20173;-49
2021/11/11 06:31:44;;;;;;;161.93;39.80;;;;;;;-0.82;98.41;101868.91;5113340;28;20095;-48
2021/11/11 06:34:11;;;;;;;172.85;39.28;;;;;;;-0.80;98.85;101877.41;5113276;28;20489;-49
2021/11/11 06:36:39;;;;;;;139.68;38.17;;;;;;;-0.82;99.05;101874.03;5113512;28;20047;-50
2021/11/11 06:39:07;;;;;;;186.98;36.72;;;;;;;-0.78;98.71;101880.75;5113300;28;20412;-48
2021/11/11 06:41:33;;;;;;;223.95;37.78;;;;;;;-0.72;99.32;101881.38;5112871;28;20051;-47
2021/11/11 06:44:00;;;;;;;178.63;39.22;;;;;;;-0.56;98.84;101878.28;5113082;28;20048;-49
2021/11/11 06:46:27;;;;;;;249.15;41.78;;;;;;;-0.69;99.61;101881.28;5110265;28;20488;-49
2021/11/11 06:48:54;;;;;;;224.07;41.67;;;;;;;-0.56;99.66;101886.84;5109855;28;20047;-49
2021/11/11 06:51:21;;;;;;;134.00;37.17;;;;;;;-0.45;99.13;101889.84;5090670;28;20143;-48
2021/11/11 06:53:49;;;;;;;224.25;40.78;;;;;;;-0.44;99.00;101886.38;5092086;28;20048;-49
2021/11/11 06:56:16;;;;;;;132.77;39.72;;;;;;;-0.35;99.05;101886.03;5092313;28;20447;-48
2021/11/11 06:58:43;;;;;;;198.55;43.15;;;;;;;-0.40;99.46;101890.50;5092359;28;20084;-49
2021/11/11 07:01:10;;;;;;;129.50;36.58;;;;;;;-0.28;99.12;101885.81;5092601;28;20457;-52
2021/11/11 07:03:37;;;;;;;244.60;42.05;;;;;;;-0.42;98.78;101894.88;5092556;28;20060;-50
2021/11/11 07:06:04;;;;;;;104.55;35.13;;;;;;;-0.27;98.82;101890.06;5092661;28;20044;-51
2021/11/11 07:08:31;;;;;;;97.90;35.08;;;;;;;-0.25;99.20;101889.13;5092142;28;20056;-54
2021/11/11 07:10:59;;;;;;;198.35;37.50;;;;;;;-0.28;99.14;101898.69;5092261;28;20083;-50
2021/11/11 07:13:25;;;;;;;111.38;35.85;;;;;;;-0.28;98.54;101902.09;5092221;28;20482;-51
2021/11/11 07:15:52;;;;;;;200.48;36.38;;;;;;;-0.30;99.16;101913.34;5091574;28;20048;-50
2021/11/11 07:18:19;;;;;;;219.48;38.30;;;;;;;-0.36;98.37;101914.38;5092390;28;20094;-52
2021/11/11 07:20:48;;;;;;;133.25;36.70;;;;;;;-0.43;98.79;101913.75;5092259;28;20105;-51
2021/11/11 07:23:16;;;;;;;152.15;67.07;;;;;;;-0.26;98.94;101930.34;5091812;28;20462;-50
2021/11/11 07:25:44;;;;;;;116.55;37.92;;;;;;;-0.27;98.58;101928.66;5092349;28;20047;-50
2021/11/11 07:28:14;;;;;;;170.98;65.18;;;;;;;-0.26;98.89;101928.59;5091730;28;20060;-47
2021/11/11 07:30:41;;;;;;;160.00;36.03;;;;;;;-0.27;98.57;101926.94;5091668;28;20075;-53
2021/11/11 07:33:08;;;;;;;139.25;38.45;;;;;;;-0.16;98.38;101937.69;5091573;28;20129;-48
2021/11/11 07:35:36;;;;;;;99.07;32.50;;;;;;;-0.23;98.66;101940.50;5091610;28;20551;-47
2021/11/11 07:38:04;;;;;;;99.60;45.53;;;;;;;-0.25;98.75;101938.00;5091287;28;20502;-52
2021/11/11 07:40:31;;;;;;;111.75;36.13;;;;;;;-0.16;98.07;101939.41;5091767;28;20109;-50
2021/11/11 07:42:58;;;;;;;100.00;33.88;;;;;;;-0.07;98.00;101939.06;5091863;28;20052;-48
2021/11/11 07:45:28;;;;;;;197.00;36.25;;;;;;;-0.17;98.23;101940.31;5092240;28;20498;-47
2021/11/11 07:47:57;;;;;;;132.73;34.45;;;;;;;-0.18;98.21;101949.75;5091705;28;20044;-48
2021/11/11 07:50:25;;;;;;;121.57;33.38;;;;;;;-0.18;98.29;101951.47;5091888;28;20044;-48
2021/11/11 07:52:52;;;;;;;118.15;34.85;;;;;;;-0.14;98.33;101951.31;5091926;28;20040;-49
2021/11/11 07:55:19;;;;;;;96.88;37.67;;;;;;;-0.13;98.00;101954.72;5092011;28;20124;-53
2021/11/11 07:57:47;;;;;;;89.38;32.60;;;;;;;-0.12;98.18;101954.69;5091485;28;20381;-48
2021/11/11 08:00:15;;;;;;;93.20;34.15;;;;;;;-0.08;97.95;101963.13;5091188;28;20060;-49
2021/11/11 08:02:44;;;;;;;99.80;34.50;;;;;;;0.02;98.03;101963.59;5091428;28;20102;-48
2021/11/11 08:05:13;;;;;;;131.60;33.53;;;;;;;0.04;97.40;101961.81;5091370;28;20117;-51
2021/11/11 08:07:42;;;;;;;198.38;34.75;;;;;;;-0.23;97.66;101955.94;5091144;28;20040;-48
2021/11/11 08:10:09;;;;;;;105.28;34.20;;;;;;;-0.14;97.45;101956.47;5091228;28;20283;-49
2021/11/11 08:12:36;;;;;;;147.35;35.22;;;;;;;-0.03;97.84;101949.19;5091190;28;20101;-48
2021/11/11 08:15:04;;;;;;;273.00;37.53;;;;;;;-0.23;97.86;101945.66;5090926;28;20076;-49
2021/11/11 08:17:31;;;;;;;221.20;36.20;;;;;;;-0.29;97.39;101951.84;5090947;28;20059;-47
2021/11/11 08:19:59;;;;;;;179.05;34.90;;;;;;;-0.25;97.38;101950.03;5090867;28;20068;-49
2021/11/11 08:22:28;;;;;;;212.50;36.03;;;;;;;-0.17;97.36;101954.00;5090874;28;20410;-52
2021/11/11 08:24:56;;;;;;;200.13;35.00;;;;;;;-0.27;97.86;101949.22;5091081;28;20072;-48
2021/11/11 08:27:24;;;;;;;186.88;34.83;;;;;;;-0.20;98.37;101950.69;5090456;28;20056;-48
2021/11/11 08:29:52;;;;;;;152.07;35.67;;;;;;;-0.08;97.92;101951.09;5090540;28;20541;-50
2021/11/11 08:32:19;;;;;;;140.52;31.35;;;;;;;0.19;97.68;101953.53;5090904;28;20090;-48
2021/11/11 08:34:48;;;;;;;139.15;32.78;;;;;;;0.02;97.52;101961.88;5091139;28;20463;-49
2021/11/11 08:37:16;;;;;;;106.90;31.92;;;;;;;0.06;97.70;101960.88;5090895;28;20090;-49
2021/11/11 08:39:43;;;;;;;140.20;33.05;;;;;;;0.11;97.96;101966.69;5090688;28;20072;-49
2021/11/11 08:42:11;;;;;;;102.88;32.20;;;;;;;0.29;98.08;101962.59;5090773;28;20052;-49
2021/11/11 08:44:39;;;;;;;134.23;34.47;;;;;;;0.32;97.89;101962.50;5090870;28;20117;-50
2021/11/11 08:47:06;;;;;;;92.95;33.28;;;;;;;0.48;98.22;101965.28;5090591;28;20086;-47
2021/11/11 08:49:32;;;;;;;93.05;33.95;;;;;;;0.45;97.68;101960.28;5090804;28;20056;-48
2021/11/11 08:51:59;;;;;;;84.70;31.42;;;;;;;0.66;98.40;101962.00;5090770;28;20055;-50
2021/11/11 08:54:27;;;;;;;90.22;34.65;;;;;;;0.88;97.84;101960.28;5090359;28;20040;-48
2021/11/11 08:56:55;;;;;;;70.88;33.13;;;;;;;1.19;97.81;101962.44;5090064;28;20068;-50
2021/11/11 08:59:23;;;;;;;77.32;33.85;;;;;;;1.43;97.39;101962.28;5090528;28;20052;-49
2021/11/11 09:01:51;;;;;;;155.98;36.00;;;;;;;0.90;97.21;101957.63;5091399;28;20410;-48
2021/11/11 09:04:19;;;;;;;103.10;36.30;;;;;;;0.92;97.57;101964.41;5090872;28;20129;-48
2021/11/11 09:06:50;;;;;;;77.18;35.13;;;;;;;0.90;97.72;101963.63;5090860;28;20089;-48
2021/11/11 09:09:18;;;;;;;83.60;37.03;;;;;;;1.02;97.83;101961.44;5090266;28;20052;-50
2021/11/11 09:11:48;;;;;;;92.95;38.78;;;;;;;1.13;97.58;101967.84;5090067;28;20554;-48
2021/11/11 09:14:15;;;;;;;89.47;39.25;;;;;;;1.13;97.88;101959.25;5090270;28;20068;-47
2021/11/11 09:16:43;;;;;;;86.15;39.38;;;;;;;1.40;97.48;101952.97;5090114;28;20044;-50
2021/11/11 09:19:10;;;;;;;86.25;39.63;;;;;;;1.44;97.33;101944.16;5090124;28;20072;-49
2021/11/11 09:21:38;;;;;;;89.32;39.97;;;;;;;1.75;97.24;101938.53;5090292;28;20048;-50
2021/11/11 09:24:05;;;;;;;103.85;43.75;;;;;;;1.92;96.82;101935.19;5090352;28;20417;-50
2021/11/11 09:26:32;;;;;;;99.70;42.47;;;;;;;2.00;96.66;101938.25;5089835;28;20048;-49
2021/11/11 09:29:03;;;;;;;98.05;44.33;;;;;;;2.10;95.82;101941.28;5090127;28;20048;-49
2021/11/11 09:31:30;;;;;;;96.13;43.97;;;;;;;2.07;95.52;101936.25;5090373;28;20055;-53
2021/11/11 09:33:57;;;;;;;93.07;45.05;;;;;;;2.19;95.24;101941.69;5090556;28;20072;-50
2021/11/11 09:36:24;;;;;;;92.82;43.25;;;;;;;2.03;95.27;101938.13;5089951;28;20048;-50
2021/11/11 09:38:52;;;;;;;87.25;43.33;;;;;;;2.05;95.38;101940.66;5090155;28;20131;-49
2021/11/11 09:41:21;;;;;;;92.53;43.20;;;;;;;2.21;95.34;101944.22;5094256;28;20074;-52
2021/11/11 09:43:48;;;;;;;90.63;42.58;;;;;;;2.21;95.72;101934.72;5094340;28;20130;-53
2021/11/11 09:46:20;;;;;;;95.78;42.20;;;;;;;2.17;95.75;101935.75;5094031;28;20105;-52
2021/11/11 09:48:47;;;;;;;83.60;40.45;;;;;;;2.27;95.87;101942.19;5093835;28;20095;-49
2021/11/11 09:51:18;;;;;;;88.18;41.88;;;;;;;2.46;96.15;101941.31;5093961;28;20075;-50
2021/11/11 09:53:55;;;;;;;79.68;41.40;;;;;;;2.59;95.42;101935.50;5093356;28;20056;-47
2021/11/11 09:59:07;;;;;;;84.15;42.00;;;;;;;2.64;95.84;101935.28;5093387;28;20059;-47
2021/11/11 10:01:35;;;;;;;83.70;41.60;;;;;;;2.87;95.62;101936.75;5093213;28;20160;-48
2021/11/11 10:04:02;;;;;;;84.88;43.40;;;;;;;2.99;95.10;101942.16;5093380;28;20064;-48
2021/11/11 10:06:30;;;;;;;87.90;44.78;;;;;;;2.97;94.69;101938.81;5093263;28;20113;-48
2021/11/11 10:08:58;;;;;;;88.40;44.17;;;;;;;3.13;94.29;101938.91;5093345;28;20056;-47
2021/11/11 10:11:31;;;;;;;80.78;43.13;;;;;;;3.11;94.46;101945.06;5093127;28;20408;-48
2021/11/11 10:14:01;;;;;;;86.60;42.72;;;;;;;2.86;94.60;101938.50;5093030;28;20075;-51
2021/11/11 10:16:28;;;;;;;98.30;46.83;;;;;;;2.96;94.92;101934.56;5093028;28;20471;-48
2021/11/11 10:18:59;;;;;;;103.05;47.10;;;;;;;3.11;94.75;101932.13;5092964;28;20116;-47
2021/11/11 10:21:31;;;;;;;94.15;48.05;;;;;;;3.14;94.60;101934.56;5093308;28;20062;-51
2021/11/11 10:24:16;;;;;;;103.90;47.92;;;;;;;3.15;95.30;101925.88;5093317;28;20456;-51
2021/11/11 10:26:52;;;;;;;97.03;48.75;;;;;;;3.15;95.02;101925.88;5093315;28;20135;-47
2021/11/11 10:29:25;;;;;;;96.80;48.25;;;;;;;3.10;95.23;101915.78;5093268;28;20675;-49
2021/11/11 10:31:54;;;;;;;95.57;48.63;;;;;;;3.40;95.07;101921.13;5093148;28;20055;-48
2021/11/11 10:34:22;;;;;;;99.00;50.40;;;;;;;3.29;94.74;101916.53;5092792;28;20126;-49
2021/11/11 10:36:51;;;;;;;105.28;50.63;;;;;;;3.33;94.53;101915.44;5092698;28;20051;-50
2021/11/11 10:39:21;;;;;;;102.78;49.97;;;;;;;3.24;94.98;101915.09;5092720;28;20070;-53
2021/11/11 10:41:49;;;;;;;100.97;50.00;;;;;;;3.19;95.34;101917.91;5092865;28;20044;-50
2021/11/11 10:44:21;;;;;;;102.07;51.38;;;;;;;3.58;94.78;101919.34;5092821;28;20102;-52
2021/11/11 10:46:52;;;;;;;105.63;51.13;;;;;;;3.39;94.87;101914.28;5092589;28;20052;-48
2021/11/11 10:49:26;;;;;;;103.82;53.20;;;;;;;3.55;94.86;101915.19;5092398;28;20147;-48
2021/11/11 10:51:54;;;;;;;99.75;51.88;;;;;;;3.65;94.63;101911.19;5092704;28;20062;-48
2021/11/11 10:54:21;;;;;;;93.15;47.53;;;;;;;3.47;94.42;101899.22;5092320;28;20055;-49
2021/11/11 10:56:49;;;;;;;90.68;49.20;;;;;;;3.47;93.92;101900.97;5092284;28;20105;-48
2021/11/11 10:59:19;;;;;;;92.95;48.35;;;;;;;3.50;94.33;101903.38;5092087;28;20109;-50
2021/11/11 11:01:46;;;;;;;104.60;49.55;;;;;;;3.52;94.18;101894.63;5092158;28;20052;-49
2021/11/11 11:04:28;;;;;;;97.68;49.50;;;;;;;3.70;94.14;101900.59;5092297;28;20101;-50
2021/11/11 11:07:14;;;;;;;89.47;48.53;;;;;;;3.63;93.51;101900.09;5092410;28;20056;-49
2021/11/11 11:10:02;;;;;;;96.82;49.88;;;;;;;3.57;94.00;101894.41;5092412;28;20040;-50
2021/11/11 11:12:32;;;;;;;95.00;50.70;;;;;;;3.55;94.66;101894.47;5093912;28;20052;-50
2021/11/11 11:14:58;;;;;;;102.68;51.47;;;;;;;3.58;94.58;101896.91;5095399;28;20136;-47
2021/11/11 11:17:29;;;;;;;104.10;53.38;;;;;;;3.72;94.42;101898.78;5094429;28;20366;-51
2021/11/11 11:20:23;;;;;;;101.03;55.00;;;;;;;3.81;94.60;101894.84;5094466;28;20068;-50
2021/11/11 11:22:52;;;;;;;105.10;55.15;;;;;;;3.90;94.47;101889.16;5093951;28;20044;-47
2021/11/11 11:25:31;;;;;;;99.93;51.72;;;;;;;4.21;94.41;101899.56;5094325;28;20056;-50
2021/11/11 11:27:58;;;;;;;101.80;50.40;;;;;;;4.21;93.53;101902.16;5094269;28;20071;-47
2021/11/11 11:30:42;;;;;;;95.43;51.25;;;;;;;4.11;93.62;101898.38;5093675;28;20447;-48
2021/11/11 11:33:17;;;;;;;97.47;50.13;;;;;;;4.15;93.07;101901.66;5092823;28;20059;-49
2021/11/11 11:35:46;;;;;;;102.78;53.15;;;;;;;4.31;93.58;101894.69;5092544;28;20523;-47
2021/11/11 11:38:23;;;;;;;98.93;51.15;;;;;;;4.30;92.70;101891.25;5092382;28;20502;-47